BWG1891 LETL-LEMD
Flight info
| Callsign | BWG1891 |
|---|---|
| Flight time | 0h 29m |
| Altitude | 20000 |
| Route | ADUXO |
| Aircraft | A320/M-SDE3FGHIRWY/LB1 |
Departure
| Time | 2026-05-07 22:46 |
|---|---|
| Airport | Teruel Airport (LETL) |
Arrival
| Time | 2026-05-07 23:15 |
|---|---|
| Airport | Adolfo Suárez Madrid–Barajas Airport (LEMD) |
| Time | Latitude | Longitude | Altitude | Speed | Heading |
|---|---|---|---|---|---|
| 2026-05-07 22:20 | 40.41062 | -1.22186 | 3298 ft | 0 kts | 267° |
| 2026-05-07 22:34 | 40.41062 | -1.22167 | 3363 ft | 4 kts | 269° |
| 2026-05-07 22:34 | 40.41062 | -1.22131 | 3362 ft | 4 kts | 274° |
| 2026-05-07 22:34 | 40.41058 | -1.22096 | 3360 ft | 4 kts | 286° |
| 2026-05-07 22:35 | 40.41048 | -1.22067 | 3366 ft | 4 kts | 325° |
| 2026-05-07 22:35 | 40.41036 | -1.22060 | 3366 ft | 1 kts | 358° |
| 2026-05-07 22:35 | 40.41034 | -1.22060 | 3360 ft | 0 kts | 358° |
| 2026-05-07 22:40 | 40.41106 | -1.22064 | 3359 ft | 17 kts | 352° |
| 2026-05-07 22:40 | 40.41229 | -1.22074 | 3352 ft | 18 kts | 358° |
| 2026-05-07 22:40 | 40.41350 | -1.22059 | 3360 ft | 17 kts | 50° |
| 2026-05-07 22:41 | 40.41370 | -1.21917 | 3351 ft | 17 kts | 88° |
| 2026-05-07 22:41 | 40.41390 | -1.21767 | 3356 ft | 14 kts | 38° |
| 2026-05-07 22:41 | 40.41468 | -1.21767 | 3348 ft | 10 kts | 354° |
| 2026-05-07 22:41 | 40.41530 | -1.21776 | 3353 ft | 10 kts | 354° |
| 2026-05-07 22:42 | 40.41608 | -1.21782 | 3332 ft | 11 kts | 357° |
| 2026-05-07 22:42 | 40.41691 | -1.21788 | 3345 ft | 12 kts | 357° |
| 2026-05-07 22:42 | 40.41778 | -1.21792 | 3349 ft | 13 kts | 358° |
| 2026-05-07 22:42 | 40.41917 | -1.21796 | 3351 ft | 27 kts | 357° |
| 2026-05-07 22:43 | 40.42126 | -1.21810 | 3330 ft | 33 kts | 356° |
| 2026-05-07 22:43 | 40.42316 | -1.21835 | 3321 ft | 22 kts | 337° |
| 2026-05-07 22:43 | 40.42440 | -1.21899 | 3317 ft | 16 kts | 6° |
| 2026-05-07 22:43 | 40.42438 | -1.21814 | 3316 ft | 10 kts | 169° |
| 2026-05-07 22:44 | 40.42376 | -1.21821 | 3318 ft | 8 kts | 186° |
| 2026-05-07 22:44 | 40.42328 | -1.21822 | 3320 ft | 5 kts | 177° |
| 2026-05-07 22:44 | 40.42306 | -1.21820 | 3321 ft | 1 kts | 177° |
| 2026-05-07 22:45 | 40.42267 | -1.21818 | 3323 ft | 24 kts | 178° |
| 2026-05-07 22:45 | 40.41816 | -1.21795 | 3343 ft | 102 kts | 178° |
| 2026-05-07 22:45 | 40.40906 | -1.21743 | 3396 ft | 156 kts | 179° |
| 2026-05-07 22:46 | 40.39825 | -1.21713 | 4136 ft | 156 kts | 179° |
| 2026-05-07 22:46 | 40.38728 | -1.21665 | 4900 ft | 164 kts | 177° |
| 2026-05-07 22:46 | 40.37502 | -1.21757 | 5288 ft | 188 kts | 188° |
| 2026-05-07 22:46 | 40.36173 | -1.22196 | 5751 ft | 208 kts | 200° |
| 2026-05-07 22:47 | 40.34992 | -1.23012 | 6179 ft | 227 kts | 213° |
| 2026-05-07 22:48 | 40.34739 | -1.23254 | 6280 ft | 231 kts | 216° |
| 2026-05-07 22:48 | 40.33551 | -1.24839 | 6691 ft | 258 kts | 234° |
| 2026-05-07 22:48 | 40.32691 | -1.26999 | 7475 ft | 275 kts | 251° |
| 2026-05-07 22:48 | 40.32582 | -1.27476 | 7668 ft | 276 kts | 255° |
| 2026-05-07 22:49 | 40.32377 | -1.30005 | 8643 ft | 284 kts | 272° |
| 2026-05-07 22:49 | 40.32777 | -1.32555 | 9647 ft | 289 kts | 288° |
| 2026-05-07 22:49 | 40.33419 | -1.35090 | 10433 ft | 302 kts | 288° |
| 2026-05-07 22:49 | 40.34112 | -1.37803 | 10977 ft | 321 kts | 288° |
| 2026-05-07 22:50 | 40.34829 | -1.40609 | 11804 ft | 328 kts | 288° |
| 2026-05-07 22:50 | 40.35556 | -1.43463 | 12734 ft | 332 kts | 287° |
| 2026-05-07 22:50 | 40.36286 | -1.46349 | 13666 ft | 335 kts | 287° |
| 2026-05-07 22:50 | 40.37020 | -1.49268 | 14489 ft | 339 kts | 287° |
| 2026-05-07 22:51 | 40.37762 | -1.52215 | 15306 ft | 342 kts | 287° |
| 2026-05-07 22:51 | 40.38508 | -1.55184 | 16138 ft | 344 kts | 287° |
| 2026-05-07 22:51 | 40.39258 | -1.58173 | 16961 ft | 347 kts | 287° |
| 2026-05-07 22:51 | 40.40003 | -1.61155 | 17745 ft | 350 kts | 287° |
| 2026-05-07 22:52 | 40.40773 | -1.64242 | 18527 ft | 353 kts | 287° |
| 2026-05-07 22:52 | 40.41539 | -1.67310 | 19236 ft | 354 kts | 287° |
| 2026-05-07 22:52 | 40.42298 | -1.70347 | 19793 ft | 355 kts | 287° |
| 2026-05-07 22:52 | 40.43067 | -1.73429 | 19980 ft | 354 kts | 287° |
| 2026-05-07 22:53 | 40.43858 | -1.76439 | 20037 ft | 340 kts | 289° |
| 2026-05-07 22:53 | 40.44670 | -1.79284 | 20037 ft | 326 kts | 289° |
| 2026-05-07 22:53 | 40.45448 | -1.82052 | 20042 ft | 322 kts | 289° |
| 2026-05-07 22:53 | 40.46179 | -1.84821 | 20043 ft | 320 kts | 288° |
| 2026-05-07 22:54 | 40.46870 | -1.87603 | 20036 ft | 320 kts | 287° |
| 2026-05-07 22:54 | 40.47534 | -1.90392 | 20034 ft | 320 kts | 286° |
| 2026-05-07 22:54 | 40.48186 | -1.93196 | 20031 ft | 320 kts | 286° |
| 2026-05-07 22:54 | 40.48832 | -1.95997 | 20034 ft | 321 kts | 286° |
| 2026-05-07 22:55 | 40.49438 | -1.98636 | 20020 ft | 321 kts | 286° |
| 2026-05-07 22:55 | 40.50082 | -2.01439 | 20027 ft | 320 kts | 285° |
| 2026-05-07 22:55 | 40.50460 | -2.04306 | 20026 ft | 320 kts | 272° |
| 2026-05-07 22:55 | 40.50274 | -2.07212 | 20032 ft | 320 kts | 258° |
| 2026-05-07 22:56 | 40.49546 | -2.09940 | 20028 ft | 322 kts | 245° |
| 2026-05-07 22:56 | 40.48400 | -2.12483 | 20023 ft | 323 kts | 240° |
| 2026-05-07 22:56 | 40.47226 | -2.14999 | 20021 ft | 323 kts | 240° |
| 2026-05-07 22:56 | 40.46051 | -2.17517 | 20026 ft | 324 kts | 240° |
| 2026-05-07 22:57 | 40.44872 | -2.20036 | 20016 ft | 324 kts | 240° |
| 2026-05-07 22:57 | 40.43657 | -2.22630 | 20026 ft | 344 kts | 240° |
| 2026-05-07 22:57 | 40.42386 | -2.25352 | 20025 ft | 353 kts | 240° |
| 2026-05-07 22:57 | 40.41099 | -2.28101 | 20029 ft | 355 kts | 240° |
| 2026-05-07 22:58 | 40.39804 | -2.30861 | 20020 ft | 355 kts | 240° |
| 2026-05-07 22:58 | 40.38523 | -2.33580 | 19772 ft | 346 kts | 240° |
| 2026-05-07 22:58 | 40.37265 | -2.36250 | 19316 ft | 344 kts | 239° |
| 2026-05-07 22:58 | 40.36011 | -2.38914 | 18843 ft | 342 kts | 239° |
| 2026-05-07 22:59 | 40.34771 | -2.41549 | 18254 ft | 337 kts | 239° |
| 2026-05-07 22:59 | 40.33546 | -2.44152 | 17284 ft | 335 kts | 239° |
| 2026-05-07 22:59 | 40.32328 | -2.46743 | 16387 ft | 332 kts | 238° |
| 2026-05-07 22:59 | 40.31122 | -2.49301 | 15549 ft | 328 kts | 238° |
| 2026-05-07 23:00 | 40.29925 | -2.51830 | 14741 ft | 325 kts | 238° |
| 2026-05-07 23:00 | 40.28767 | -2.54273 | 14280 ft | 311 kts | 238° |
| 2026-05-07 23:00 | 40.27669 | -2.56591 | 14160 ft | 289 kts | 238° |
| 2026-05-07 23:00 | 40.26677 | -2.58777 | 13952 ft | 272 kts | 244° |
| 2026-05-07 23:01 | 40.26117 | -2.61106 | 13595 ft | 267 kts | 261° |
| 2026-05-07 23:01 | 40.26044 | -2.63526 | 13332 ft | 266 kts | 269° |
| 2026-05-07 23:01 | 40.26048 | -2.65943 | 13072 ft | 265 kts | 269° |
| 2026-05-07 23:01 | 40.26042 | -2.68348 | 12807 ft | 263 kts | 268° |
| 2026-05-07 23:02 | 40.26031 | -2.70741 | 12546 ft | 262 kts | 268° |
| 2026-05-07 23:02 | 40.26020 | -2.73121 | 12287 ft | 261 kts | 268° |
| 2026-05-07 23:02 | 40.26010 | -2.75489 | 12026 ft | 260 kts | 268° |
| 2026-05-07 23:02 | 40.26002 | -2.77853 | 11770 ft | 259 kts | 268° |
| 2026-05-07 23:03 | 40.25996 | -2.80201 | 11518 ft | 258 kts | 268° |
| 2026-05-07 23:03 | 40.25989 | -2.82544 | 11268 ft | 257 kts | 268° |
| 2026-05-07 23:03 | 40.25982 | -2.84846 | 11022 ft | 256 kts | 268° |
| 2026-05-07 23:03 | 40.25972 | -2.87165 | 10776 ft | 255 kts | 268° |
| 2026-05-07 23:04 | 40.25961 | -2.89485 | 10531 ft | 254 kts | 268° |
| 2026-05-07 23:04 | 40.25948 | -2.91786 | 10283 ft | 253 kts | 268° |
| 2026-05-07 23:04 | 40.25935 | -2.94088 | 10041 ft | 252 kts | 268° |
| 2026-05-07 23:04 | 40.25922 | -2.96375 | 9877 ft | 251 kts | 268° |
| 2026-05-07 23:05 | 40.25910 | -2.98663 | 9728 ft | 251 kts | 268° |
| 2026-05-07 23:05 | 40.25897 | -3.00943 | 9501 ft | 250 kts | 268° |
| 2026-05-07 23:05 | 40.25885 | -3.03215 | 9258 ft | 249 kts | 268° |
| 2026-05-07 23:05 | 40.25871 | -3.05483 | 9014 ft | 249 kts | 268° |
| 2026-05-07 23:06 | 40.25857 | -3.07736 | 8762 ft | 247 kts | 268° |
| 2026-05-07 23:06 | 40.25844 | -3.09980 | 8512 ft | 246 kts | 268° |
| 2026-05-07 23:06 | 40.25830 | -3.12221 | 8272 ft | 246 kts | 267° |
| 2026-05-07 23:06 | 40.25925 | -3.14447 | 8030 ft | 246 kts | 278° |
| 2026-05-07 23:07 | 40.26220 | -3.16657 | 7786 ft | 246 kts | 278° |
| 2026-05-07 23:07 | 40.26513 | -3.18859 | 7539 ft | 245 kts | 278° |
| 2026-05-07 23:07 | 40.26806 | -3.21055 | 7295 ft | 245 kts | 278° |
| 2026-05-07 23:07 | 40.27098 | -3.23250 | 7046 ft | 244 kts | 278° |
| 2026-05-07 23:08 | 40.27390 | -3.25454 | 6811 ft | 255 kts | 278° |
| 2026-05-07 23:08 | 40.27702 | -3.27848 | 6532 ft | 273 kts | 278° |
| 2026-05-07 23:08 | 40.28019 | -3.30278 | 6263 ft | 275 kts | 278° |
| 2026-05-07 23:08 | 40.28573 | -3.32645 | 6043 ft | 268 kts | 296° |
| 2026-05-07 23:09 | 40.29627 | -3.34585 | 5879 ft | 257 kts | 309° |
| 2026-05-07 23:09 | 40.30764 | -3.36336 | 5687 ft | 248 kts | 309° |
| 2026-05-07 23:09 | 40.31927 | -3.37941 | 5578 ft | 237 kts | 317° |
| 2026-05-07 23:09 | 40.33178 | -3.39292 | 5396 ft | 231 kts | 321° |
| 2026-05-07 23:10 | 40.34441 | -3.40558 | 5145 ft | 225 kts | 322° |
| 2026-05-07 23:10 | 40.35664 | -3.41786 | 4833 ft | 218 kts | 321° |
| 2026-05-07 23:10 | 40.36842 | -3.42974 | 4542 ft | 210 kts | 321° |
| 2026-05-07 23:10 | 40.37980 | -3.44125 | 4265 ft | 201 kts | 322° |
| 2026-05-07 23:11 | 40.39043 | -3.45199 | 4013 ft | 184 kts | 323° |
| 2026-05-07 23:11 | 40.40005 | -3.46173 | 3783 ft | 167 kts | 323° |
| 2026-05-07 23:11 | 40.40882 | -3.47061 | 3566 ft | 155 kts | 324° |
| 2026-05-07 23:11 | 40.41441 | -3.47626 | 3431 ft | 151 kts | 324° |
| 2026-05-07 23:12 | 40.41929 | -3.48123 | 3319 ft | 147 kts | 324° |
| 2026-05-07 23:13 | 40.42590 | -3.48789 | 3123 ft | 141 kts | 324° |
| 2026-05-07 23:13 | 40.43351 | -3.49559 | 2882 ft | 136 kts | 323° |
| 2026-05-07 23:13 | 40.44090 | -3.50301 | 2649 ft | 132 kts | 324° |
| 2026-05-07 23:14 | 40.44815 | -3.51038 | 2511 ft | 131 kts | 324° |
| 2026-05-07 23:14 | 40.45292 | -3.51522 | 2431 ft | 131 kts | 324° |
| 2026-05-07 23:14 | 40.46010 | -3.52255 | 2258 ft | 131 kts | 323° |
| 2026-05-07 23:14 | 40.46733 | -3.52982 | 2089 ft | 131 kts | 323° |
| 2026-05-07 23:15 | 40.47449 | -3.53723 | 1950 ft | 130 kts | 324° |
| 2026-05-07 23:15 | 40.48082 | -3.54364 | 1932 ft | 85 kts | 321° |
| 2026-05-07 23:15 | 40.48397 | -3.54682 | 1937 ft | 47 kts | 323° |
| 2026-05-07 23:15 | 40.48641 | -3.54928 | 1947 ft | 41 kts | 322° |
| 2026-05-07 23:16 | 40.48789 | -3.55178 | 1954 ft | 32 kts | 292° |
| 2026-05-07 23:16 | 40.48849 | -3.55380 | 1951 ft | 12 kts | 294° |
| 2026-05-07 23:16 | 40.48856 | -3.55402 | 1955 ft | 0 kts | 294° |
| 2026-05-07 23:20 | 40.48856 | -3.55403 | 1955 ft | 0 kts | 294° |
| 2026-05-07 23:20 | 40.48872 | -3.55434 | 1952 ft | 7 kts | 309° |
| 2026-05-07 23:20 | 40.48928 | -3.55500 | 1953 ft | 14 kts | 321° |
| 2026-05-07 23:21 | 40.49007 | -3.55582 | 1954 ft | 15 kts | 323° |
| 2026-05-07 23:21 | 40.49093 | -3.55667 | 1957 ft | 15 kts | 323° |
| 2026-05-07 23:21 | 40.49167 | -3.55741 | 1959 ft | 14 kts | 322° |
| 2026-05-07 23:21 | 40.49228 | -3.55805 | 1960 ft | 9 kts | 321° |
| 2026-05-07 23:22 | 40.49275 | -3.55853 | 1960 ft | 8 kts | 321° |
| 2026-05-07 23:22 | 40.49304 | -3.55911 | 1960 ft | 8 kts | 277° |
| 2026-05-07 23:22 | 40.49299 | -3.56018 | 1959 ft | 14 kts | 270° |
| 2026-05-07 23:22 | 40.49277 | -3.56143 | 1959 ft | 14 kts | 217° |
| 2026-05-07 23:23 | 40.49182 | -3.56139 | 1959 ft | 15 kts | 176° |
| 2026-05-07 23:23 | 40.49068 | -3.56138 | 1959 ft | 15 kts | 179° |
| 2026-05-07 23:23 | 40.48955 | -3.56140 | 1959 ft | 17 kts | 180° |
| 2026-05-07 23:23 | 40.48835 | -3.56137 | 1959 ft | 15 kts | 179° |
| 2026-05-07 23:24 | 40.48772 | -3.56191 | 1961 ft | 12 kts | 255° |
| 2026-05-07 23:24 | 40.48768 | -3.56301 | 1963 ft | 12 kts | 270° |
| 2026-05-07 23:24 | 40.48769 | -3.56414 | 1967 ft | 12 kts | 270° |
| 2026-05-07 23:24 | 40.48767 | -3.56524 | 1971 ft | 12 kts | 268° |
| 2026-05-07 23:25 | 40.48766 | -3.56635 | 1977 ft | 12 kts | 270° |
| 2026-05-07 23:25 | 40.48766 | -3.56747 | 1975 ft | 13 kts | 270° |
| 2026-05-07 23:25 | 40.48766 | -3.56867 | 1980 ft | 14 kts | 270° |
| 2026-05-07 23:25 | 40.48766 | -3.56995 | 1981 ft | 14 kts | 270° |
| 2026-05-07 23:26 | 40.48766 | -3.57130 | 1982 ft | 15 kts | 269° |
| 2026-05-07 23:26 | 40.48767 | -3.57270 | 1987 ft | 16 kts | 270° |
| 2026-05-07 23:26 | 40.48763 | -3.57416 | 1988 ft | 16 kts | 270° |
| 2026-05-07 23:26 | 40.48764 | -3.57565 | 1990 ft | 17 kts | 271° |
| 2026-05-07 23:27 | 40.48760 | -3.57888 | 1998 ft | 17 kts | 257° |
| 2026-05-07 23:27 | 40.48660 | -3.57926 | 1999 ft | 17 kts | 180° |
| 2026-05-07 23:27 | 40.48539 | -3.57878 | 1996 ft | 21 kts | 154° |
| 2026-05-07 23:28 | 40.48397 | -3.57773 | 1993 ft | 25 kts | 148° |
| 2026-05-07 23:28 | 40.48306 | -3.57684 | 1995 ft | 25 kts | 141° |
| 2026-05-07 23:28 | 40.48184 | -3.57561 | 1999 ft | 25 kts | 142° |
| 2026-05-07 23:28 | 40.48048 | -3.57423 | 2002 ft | 25 kts | 142° |
| 2026-05-07 23:29 | 40.47917 | -3.57332 | 2002 ft | 16 kts | 204° |
| 2026-05-07 23:29 | 40.47881 | -3.57368 | 2005 ft | 4 kts | 158° |
| 2026-05-07 23:29 | 40.47830 | -3.57319 | 1997 ft | 17 kts | 141° |
| 2026-05-07 23:29 | 40.47725 | -3.57213 | 1999 ft | 21 kts | 142° |
| 2026-05-07 23:30 | 40.47617 | -3.57125 | 1997 ft | 15 kts | 190° |
| 2026-05-07 23:30 | 40.47535 | -3.57199 | 1996 ft | 14 kts | 183° |
| 2026-05-07 23:30 | 40.47439 | -3.57167 | 1993 ft | 13 kts | 184° |
| 2026-05-07 23:30 | 40.47363 | -3.57181 | 1992 ft | 9 kts | 190° |
| 2026-05-07 23:31 | 40.47297 | -3.57164 | 1990 ft | 6 kts | 144° |
| 2026-05-07 23:31 | 40.47280 | -3.57142 | 1989 ft | 2 kts | 136° |
| 2026-05-07 23:31 | 40.47276 | -3.57137 | 1989 ft | 0 kts | 137° |